createdAt,value
2018-12-30T00:00:09.374Z,1.40
2018-12-30T00:02:37.657Z,1.40
2018-12-30T00:05:06.374Z,1.40
2018-12-30T00:07:34.825Z,1.30
2018-12-30T00:10:03.022Z,1.30
2018-12-30T00:12:31.380Z,1.30
2018-12-30T00:14:59.672Z,1.30
2018-12-30T00:17:27.891Z,1.30
2018-12-30T00:19:56.512Z,1.30
2018-12-30T00:22:24.841Z,1.30
2018-12-30T00:24:53.149Z,1.30
2018-12-30T00:27:21.366Z,1.30
2018-12-30T00:29:49.590Z,1.30
2018-12-30T00:32:17.838Z,1.30
2018-12-30T00:34:46.056Z,1.30
2018-12-30T00:37:14.675Z,1.30
2018-12-30T00:39:42.900Z,1.30
2018-12-30T00:42:11.125Z,1.30
2018-12-30T00:44:39.319Z,1.30
2018-12-30T00:47:07.637Z,1.30
2018-12-30T00:49:35.876Z,1.30
2018-12-30T00:52:04.181Z,1.30
2018-12-30T00:54:32.560Z,1.30
2018-12-30T00:57:00.741Z,1.30
2018-12-30T00:59:28.952Z,1.30
2018-12-30T01:01:57.587Z,1.30
2018-12-30T01:04:25.881Z,1.30
2018-12-30T01:06:54.796Z,1.40
2018-12-30T01:09:23.021Z,1.40
2018-12-30T01:11:51.267Z,1.40
2018-12-30T01:14:19.482Z,1.40
2018-12-30T01:16:48.017Z,1.40
2018-12-30T01:19:16.333Z,1.40
2018-12-30T01:21:44.665Z,1.50
2018-12-30T01:24:12.885Z,1.40
2018-12-30T01:26:41.096Z,1.40
2018-12-30T01:29:09.301Z,1.40
2018-12-30T01:31:37.626Z,1.40
2018-12-30T01:34:05.869Z,1.40
2018-12-30T01:36:34.173Z,1.40
2018-12-30T01:39:02.466Z,1.30
2018-12-30T01:41:30.790Z,1.30
2018-12-30T01:43:59.314Z,1.20
2018-12-30T01:46:27.531Z,1.30
2018-12-30T01:48:55.735Z,1.20
2018-12-30T01:51:24.036Z,1.10
2018-12-30T01:53:52.398Z,1.20
2018-12-30T01:56:20.584Z,1.20
2018-12-30T01:58:49.239Z,1.20
2018-12-30T02:01:17.428Z,1.20
2018-12-30T02:03:45.660Z,1.20
2018-12-30T02:06:13.860Z,1.30
2018-12-30T02:08:42.048Z,1.30
2018-12-30T02:11:10.443Z,1.40
2018-12-30T02:13:38.649Z,1.40
2018-12-30T02:16:06.887Z,1.30
2018-12-30T02:18:35.109Z,1.30
2018-12-30T02:21:03.293Z,1.30
2018-12-30T02:23:31.497Z,1.30
2018-12-30T02:25:59.693Z,1.30
2018-12-30T02:28:27.909Z,1.30
2018-12-30T02:30:56.102Z,1.30
2018-12-30T02:33:24.318Z,1.40
2018-12-30T02:35:52.548Z,1.40
2018-12-30T02:38:21.080Z,1.50
2018-12-30T02:40:49.305Z,1.50
2018-12-30T02:43:17.488Z,1.50
2018-12-30T02:45:45.680Z,1.50
2018-12-30T02:48:13.950Z,1.50
2018-12-30T02:50:42.470Z,1.60
2018-12-30T02:53:10.653Z,1.70
2018-12-30T02:55:38.857Z,1.70
2018-12-30T02:58:07.059Z,1.70
2018-12-30T03:00:35.266Z,1.80
2018-12-30T03:03:03.889Z,1.80
2018-12-30T03:05:32.066Z,1.80
2018-12-30T03:08:00.330Z,1.90
2018-12-30T03:10:28.518Z,1.90
2018-12-30T03:12:56.724Z,1.90
2018-12-30T03:15:25.349Z,1.90
2018-12-30T03:17:53.545Z,1.90
2018-12-30T03:20:21.763Z,2.00
2018-12-30T03:22:49.978Z,2.00
2018-12-30T03:25:18.176Z,2.00
2018-12-30T03:27:46.402Z,2.00
2018-12-30T03:30:14.583Z,2.00
2018-12-30T03:32:42.799Z,1.90
2018-12-30T03:35:11.170Z,1.90
2018-12-30T03:37:39.384Z,1.90
2018-12-30T03:40:09.237Z,1.80
2018-12-30T03:42:37.445Z,1.80
2018-12-30T03:45:06.239Z,1.80
2018-12-30T03:47:34.451Z,1.80
2018-12-30T03:50:02.740Z,1.70
2018-12-30T03:52:30.946Z,1.70
2018-12-30T03:54:59.123Z,1.70
2018-12-30T03:57:27.303Z,1.70
2018-12-30T03:59:55.514Z,1.70
2018-12-30T04:02:24.310Z,1.70
2018-12-30T04:04:52.505Z,1.70
2018-12-30T04:07:20.717Z,1.70
2018-12-30T04:09:48.909Z,1.60
2018-12-30T04:12:17.115Z,1.60
2018-12-30T04:14:45.315Z,1.60
2018-12-30T04:17:13.556Z,1.50
2018-12-30T04:19:41.756Z,1.40
2018-12-30T04:22:16.844Z,1.40
2018-12-30T04:24:40.197Z,1.30
2018-12-30T04:27:08.371Z,1.30
2018-12-30T04:29:36.544Z,1.30
2018-12-30T04:32:04.738Z,1.30
2018-12-30T04:34:32.916Z,1.20
2018-12-30T04:37:01.142Z,1.20
2018-12-30T04:39:29.347Z,1.10
2018-12-30T04:41:57.516Z,1.10
2018-12-30T04:44:25.730Z,1.10
2018-12-30T04:46:53.909Z,1.00
2018-12-30T04:49:22.128Z,0.90
2018-12-30T04:51:50.318Z,0.90
2018-12-30T04:54:18.498Z,0.80
2018-12-30T04:56:46.713Z,0.80
2018-12-30T04:59:14.893Z,0.80
2018-12-30T05:01:43.116Z,0.80
2018-12-30T05:04:11.296Z,0.70
2018-12-30T05:06:39.543Z,0.70
2018-12-30T05:09:07.869Z,0.70
2018-12-30T05:11:36.050Z,0.70
2018-12-30T05:14:04.246Z,0.70
2018-12-30T05:16:32.463Z,0.70
2018-12-30T05:19:00.685Z,0.60
2018-12-30T05:21:28.899Z,0.60
2018-12-30T05:23:57.137Z,0.60
2018-12-30T05:26:25.343Z,0.50
2018-12-30T05:28:53.526Z,0.50
2018-12-30T05:31:21.744Z,0.50
2018-12-30T05:33:50.013Z,0.50
2018-12-30T05:36:18.196Z,0.40
2018-12-30T05:38:46.400Z,0.40
2018-12-30T05:41:14.597Z,0.30
2018-12-30T05:43:42.844Z,0.40
2018-12-30T05:46:11.047Z,0.40
2018-12-30T05:48:39.220Z,0.30
2018-12-30T05:51:07.400Z,0.30
2018-12-30T05:53:35.600Z,0.20
2018-12-30T05:56:03.772Z,0.20
2018-12-30T05:58:31.969Z,0.20
2018-12-30T06:01:00.241Z,0.20
2018-12-30T06:03:28.423Z,0.20
2018-12-30T06:05:56.630Z,0.20
2018-12-30T06:08:24.838Z,0.10
2018-12-30T06:10:53.056Z,0.10
2018-12-30T06:13:21.282Z,0.10
2018-12-30T06:15:49.465Z,0.00
2018-12-30T06:18:17.643Z,0.00
2018-12-30T06:20:45.843Z,0.00
2018-12-30T06:23:14.098Z,0.00
2018-12-30T06:25:42.351Z,0.00
2018-12-30T06:28:10.597Z,-0.10
2018-12-30T06:30:38.783Z,-0.10
2018-12-30T06:33:06.971Z,-0.10
2018-12-30T06:35:35.145Z,-0.10
2018-12-30T06:38:03.346Z,-0.10
2018-12-30T06:40:31.566Z,-0.10
2018-12-30T06:42:59.753Z,-0.10
2018-12-30T06:45:27.956Z,-0.10
2018-12-30T06:47:56.158Z,-0.10
2018-12-30T06:50:24.491Z,0.00
2018-12-30T06:52:57.587Z,0.00
2018-12-30T06:55:22.908Z,0.10
2018-12-30T06:57:51.108Z,0.10
2018-12-30T07:00:19.302Z,0.10
2018-12-30T07:02:47.519Z,0.10
2018-12-30T07:05:15.730Z,0.20
2018-12-30T07:07:43.902Z,0.20
2018-12-30T07:10:12.107Z,0.20
2018-12-30T07:12:40.298Z,0.20
2018-12-30T07:15:09.182Z,0.20
2018-12-30T07:17:37.359Z,0.20
2018-12-30T07:20:07.341Z,0.20
2018-12-30T07:22:35.582Z,0.20
2018-12-30T07:25:04.013Z,0.30
2018-12-30T07:27:32.191Z,0.30
2018-12-30T07:30:00.401Z,0.40
2018-12-30T07:32:28.592Z,0.50
2018-12-30T07:34:57.249Z,0.50
2018-12-30T07:37:25.440Z,0.60
2018-12-30T07:39:53.622Z,0.60
2018-12-30T07:42:21.834Z,0.70
2018-12-30T07:44:50.050Z,0.70
2018-12-30T07:47:18.231Z,0.80
2018-12-30T07:49:46.437Z,0.90
2018-12-30T07:52:14.620Z,0.90
2018-12-30T07:54:42.897Z,1.00
2018-12-30T07:57:11.199Z,1.10
2018-12-30T07:59:39.385Z,1.20
2018-12-30T08:02:07.618Z,1.20
2018-12-30T08:04:35.816Z,1.20
2018-12-30T08:07:04.049Z,1.20
2018-12-30T08:09:32.251Z,1.20
2018-12-30T08:12:00.455Z,1.30
2018-12-30T08:14:28.997Z,1.40
2018-12-30T08:16:57.255Z,1.40
2018-12-30T08:19:25.435Z,1.40
2018-12-30T08:21:53.625Z,1.40
2018-12-30T08:24:21.831Z,1.30
2018-12-30T08:26:50.018Z,1.20
2018-12-30T08:29:18.197Z,1.20
2018-12-30T08:31:46.392Z,1.30
2018-12-30T08:34:14.577Z,1.40
2018-12-30T08:36:42.837Z,1.60
2018-12-30T08:39:11.018Z,1.60
2018-12-30T08:41:39.255Z,1.80
2018-12-30T08:44:07.435Z,1.80
2018-12-30T08:46:35.623Z,1.90
2018-12-30T08:49:03.872Z,1.90
2018-12-30T08:51:32.055Z,1.90
2018-12-30T08:54:00.365Z,1.90
2018-12-30T08:56:28.598Z,1.90
2018-12-30T08:58:56.902Z,1.90
2018-12-30T09:01:28.414Z,2.00
2018-12-30T09:03:55.377Z,2.10
2018-12-30T09:06:23.561Z,2.30
2018-12-30T09:08:51.910Z,2.60
2018-12-30T09:11:20.095Z,2.70
2018-12-30T09:13:48.274Z,3.00
2018-12-30T09:16:16.498Z,3.10
2018-12-30T09:18:44.674Z,3.30
2018-12-30T09:21:12.909Z,3.60
2018-12-30T09:23:41.231Z,3.70
2018-12-30T09:26:09.401Z,3.90
2018-12-30T09:28:37.592Z,4.00
2018-12-30T09:31:05.762Z,4.00
2018-12-30T09:33:33.973Z,3.90
2018-12-30T09:36:02.169Z,3.90
2018-12-30T09:38:30.363Z,3.90
2018-12-30T09:40:58.566Z,3.90
2018-12-30T09:43:26.752Z,3.90
2018-12-30T09:45:54.943Z,3.90
2018-12-30T09:48:23.142Z,3.90
2018-12-30T09:50:51.329Z,3.90
2018-12-30T09:53:19.544Z,4.00
2018-12-30T09:55:47.720Z,4.30
2018-12-30T09:58:15.895Z,4.50
2018-12-30T10:00:44.096Z,4.80
2018-12-30T10:03:12.288Z,5.00
2018-12-30T10:05:40.460Z,5.10
2018-12-30T10:08:08.661Z,5.50
2018-12-30T10:10:36.829Z,6.00
2018-12-30T10:13:05.095Z,6.60
2018-12-30T10:15:34.137Z,7.20
2018-12-30T10:18:02.332Z,7.60
2018-12-30T10:20:31.210Z,8.40
2018-12-30T10:22:59.447Z,8.80
2018-12-30T10:25:27.916Z,9.30
2018-12-30T10:27:56.162Z,9.60
2018-12-30T10:30:24.345Z,9.90
2018-12-30T10:32:52.641Z,10.40
2018-12-30T10:35:20.847Z,10.90
2018-12-30T10:37:49.064Z,11.60
2018-12-30T10:40:17.284Z,12.20
2018-12-30T10:42:45.478Z,12.70
2018-12-30T10:45:13.675Z,14.60
2018-12-30T10:47:41.889Z,16.40
2018-12-30T10:50:10.063Z,17.30
2018-12-30T10:52:38.252Z,18.30
2018-12-30T10:55:06.458Z,17.70
2018-12-30T10:57:34.656Z,16.90
2018-12-30T11:00:02.903Z,17.20
2018-12-30T11:02:31.092Z,18.80
2018-12-30T11:05:00.308Z,20.10
2018-12-30T11:07:28.511Z,20.10
2018-12-30T11:09:56.687Z,20.00
2018-12-30T11:12:24.910Z,19.60
2018-12-30T11:14:53.111Z,18.40
2018-12-30T11:17:21.343Z,16.80
2018-12-30T11:19:49.559Z,15.10
2018-12-30T11:22:17.760Z,13.50
2018-12-30T11:24:45.958Z,12.20
2018-12-30T11:27:14.162Z,11.20
2018-12-30T11:29:42.356Z,10.50
2018-12-30T11:32:10.594Z,10.20
2018-12-30T11:34:38.783Z,9.90
2018-12-30T11:37:06.977Z,10.00
2018-12-30T11:39:35.192Z,10.20
2018-12-30T11:42:03.370Z,10.10
2018-12-30T11:44:31.550Z,10.00
2018-12-30T11:46:59.757Z,10.10
2018-12-30T11:49:27.943Z,10.10
2018-12-30T11:51:56.170Z,10.40
2018-12-30T11:54:24.384Z,11.00
2018-12-30T11:56:52.584Z,11.00
2018-12-30T11:59:20.774Z,11.00
2018-12-30T12:01:48.976Z,11.30
2018-12-30T12:04:17.159Z,11.30
2018-12-30T12:06:45.413Z,11.00
2018-12-30T12:09:19.498Z,10.70
2018-12-30T12:11:47.683Z,10.40
2018-12-30T12:14:15.894Z,10.00
2018-12-30T12:16:44.078Z,9.80
2018-12-30T12:19:12.253Z,9.70
2018-12-30T12:21:40.461Z,9.90
2018-12-30T12:24:08.664Z,12.30
2018-12-30T12:26:36.840Z,17.10
2018-12-30T12:29:05.039Z,21.70
2018-12-30T12:31:33.213Z,23.80
2018-12-30T12:34:01.429Z,26.00
2018-12-30T12:36:29.647Z,28.60
2018-12-30T12:38:57.832Z,30.50
2018-12-30T12:41:26.021Z,31.90
2018-12-30T12:43:54.277Z,32.60
2018-12-30T12:46:22.521Z,32.20
2018-12-30T12:48:50.728Z,31.60
2018-12-30T12:51:18.943Z,28.40
2018-12-30T12:53:47.135Z,29.40
2018-12-30T12:56:15.353Z,29.80
2018-12-30T12:58:43.548Z,27.10
2018-12-30T13:01:11.772Z,25.80
2018-12-30T13:03:39.992Z,24.30
2018-12-30T13:06:08.173Z,22.40
2018-12-30T13:08:36.380Z,19.00
2018-12-30T13:11:04.558Z,16.80
2018-12-30T13:13:32.749Z,15.10
2018-12-30T13:16:03.498Z,13.60
2018-12-30T13:18:31.173Z,12.60
2018-12-30T13:20:59.385Z,13.00
2018-12-30T13:23:27.597Z,13.90
2018-12-30T13:25:55.781Z,14.50
2018-12-30T13:28:23.984Z,14.00
2018-12-30T13:31:25.499Z,13.30
2018-12-30T13:33:55.002Z,12.70
2018-12-30T13:36:24.865Z,12.20
2018-12-30T13:38:54.348Z,11.60
2018-12-30T13:41:23.854Z,11.30
2018-12-30T13:43:53.320Z,11.00
2018-12-30T13:46:22.801Z,10.80
2018-12-30T13:48:52.297Z,10.50
2018-12-30T13:51:21.774Z,10.50
2018-12-30T13:53:51.287Z,10.40
2018-12-30T13:56:20.829Z,10.40
2018-12-30T13:58:50.429Z,10.40
2018-12-30T14:01:20.239Z,10.30
2018-12-30T14:03:49.771Z,10.30
2018-12-30T14:06:19.283Z,10.10
2018-12-30T14:08:48.773Z,10.00
2018-12-30T14:11:18.210Z,9.80
2018-12-30T14:13:47.718Z,9.70
2018-12-30T14:16:17.221Z,9.80
2018-12-30T14:18:46.856Z,9.90
2018-12-30T14:21:16.338Z,10.20
2018-12-30T14:23:45.803Z,10.50
2018-12-30T14:26:15.309Z,10.60
2018-12-30T14:28:44.777Z,10.50
2018-12-30T14:31:14.398Z,10.50
2018-12-30T14:33:43.983Z,10.40
2018-12-30T14:36:13.470Z,10.20
2018-12-30T14:38:42.949Z,10.00
2018-12-30T14:41:12.403Z,9.70
2018-12-30T14:43:41.859Z,9.50
2018-12-30T14:46:11.309Z,9.30
2018-12-30T14:48:40.816Z,9.10
2018-12-30T14:51:10.297Z,9.00
2018-12-30T14:53:39.757Z,8.90
2018-12-30T14:56:09.264Z,8.70
2018-12-30T14:58:38.720Z,8.60
2018-12-30T15:01:14.825Z,8.50
2018-12-30T15:03:39.420Z,8.30
2018-12-30T15:06:08.880Z,8.20
2018-12-30T15:08:38.341Z,8.20
2018-12-30T15:11:07.830Z,8.10
2018-12-30T15:13:37.230Z,8.10
2018-12-30T15:16:06.696Z,7.90
2018-12-30T15:18:36.192Z,7.90
2018-12-30T15:21:05.682Z,7.70
2018-12-30T15:23:35.162Z,7.60
2018-12-30T15:26:04.643Z,7.60
2018-12-30T15:28:34.109Z,7.60
2018-12-30T15:31:03.577Z,7.50
2018-12-30T15:33:33.035Z,7.40
2018-12-30T15:36:02.584Z,7.40
2018-12-30T15:38:32.054Z,7.30
2018-12-30T15:41:01.513Z,7.30
2018-12-30T15:43:30.999Z,7.30
2018-12-30T15:46:00.458Z,7.40
2018-12-30T15:48:29.948Z,7.50
2018-12-30T15:50:59.440Z,7.50
2018-12-30T15:53:28.899Z,7.50
2018-12-30T15:55:58.377Z,7.40
2018-12-30T15:58:27.846Z,7.30
2018-12-30T16:00:57.333Z,7.20
2018-12-30T16:03:26.790Z,7.20
2018-12-30T16:05:57.799Z,7.10
2018-12-30T16:08:27.451Z,7.10
2018-12-30T16:10:56.916Z,7.10
2018-12-30T16:13:26.485Z,7.20
2018-12-30T16:15:56.076Z,7.20
2018-12-30T16:18:25.605Z,7.20
2018-12-30T16:20:55.074Z,7.10
2018-12-30T16:23:24.553Z,7.20
2018-12-30T16:25:54.025Z,7.20
2018-12-30T16:28:23.498Z,7.20
2018-12-30T16:30:52.972Z,7.20
2018-12-30T16:33:22.429Z,7.20
2018-12-30T16:35:51.958Z,7.20
2018-12-30T16:38:21.424Z,7.30
2018-12-30T16:40:50.888Z,7.30
2018-12-30T16:43:20.389Z,7.20
2018-12-30T16:45:49.854Z,7.10
2018-12-30T16:48:19.316Z,7.00
2018-12-30T16:50:48.924Z,7.10
2018-12-30T16:53:18.385Z,7.10
2018-12-30T16:55:47.964Z,7.10
2018-12-30T16:58:17.458Z,7.20
2018-12-30T17:00:46.995Z,7.20
2018-12-30T17:03:16.452Z,7.20
2018-12-30T17:05:47.819Z,7.20
2018-12-30T17:08:17.283Z,7.20
2018-12-30T17:10:46.778Z,7.20
2018-12-30T17:13:16.248Z,7.10
2018-12-30T17:15:45.719Z,7.10
2018-12-30T17:18:15.323Z,7.00
2018-12-30T17:20:44.789Z,7.00
2018-12-30T17:23:14.246Z,6.90
2018-12-30T17:25:43.751Z,6.90
2018-12-30T17:28:13.235Z,6.80
2018-12-30T17:30:42.717Z,6.60
2018-12-30T17:33:12.309Z,6.60
2018-12-30T17:35:41.760Z,6.80
2018-12-30T17:38:11.294Z,6.80
2018-12-30T17:40:40.748Z,6.80
2018-12-30T17:43:10.248Z,6.80
2018-12-30T17:45:39.859Z,6.90
2018-12-30T17:48:09.340Z,6.90
2018-12-30T17:50:38.871Z,6.90
2018-12-30T17:53:08.332Z,7.00
2018-12-30T17:55:37.835Z,7.00
2018-12-30T17:58:07.278Z,7.00
2018-12-30T18:00:36.782Z,7.00
2018-12-30T18:03:06.242Z,7.00
2018-12-30T18:05:35.909Z,7.00
2018-12-30T18:08:05.406Z,7.00
2018-12-30T18:10:34.871Z,7.00
2018-12-30T18:13:04.334Z,7.00
2018-12-30T18:15:33.818Z,6.90
2018-12-30T18:18:03.296Z,6.90
2018-12-30T18:20:32.759Z,6.90
2018-12-30T18:23:02.251Z,6.80
2018-12-30T18:25:31.728Z,6.80
2018-12-30T18:28:01.172Z,6.80
2018-12-30T18:30:30.663Z,6.70
2018-12-30T18:33:00.127Z,6.70
2018-12-30T18:35:29.601Z,6.70
2018-12-30T18:37:59.094Z,6.70
2018-12-30T18:40:28.552Z,6.80
2018-12-30T18:42:58.129Z,6.80
2018-12-30T18:45:27.638Z,6.80
2018-12-30T18:47:57.117Z,6.90
2018-12-30T18:50:26.588Z,6.80
2018-12-30T18:52:56.075Z,6.80
2018-12-30T18:55:25.565Z,6.90
2018-12-30T18:57:55.064Z,6.80
2018-12-30T19:00:24.507Z,6.80
2018-12-30T19:02:54.080Z,6.80
2018-12-30T19:05:23.575Z,6.80
2018-12-30T19:07:53.059Z,6.80
2018-12-30T19:10:22.520Z,6.90
2018-12-30T19:12:52.031Z,6.90
2018-12-30T19:15:21.526Z,6.90
2018-12-30T19:17:51.003Z,6.90
2018-12-30T19:20:20.496Z,6.80
2018-12-30T19:22:49.970Z,6.90
2018-12-30T19:25:19.435Z,6.80
2018-12-30T19:27:48.934Z,6.80
2018-12-30T19:30:18.399Z,6.80
2018-12-30T19:32:48.306Z,6.80
2018-12-30T19:35:18.931Z,6.60
2018-12-30T19:40:38.486Z,6.50
2018-12-30T19:43:08.164Z,6.50
2018-12-30T19:45:37.773Z,6.60
2018-12-30T19:48:07.464Z,6.60
2018-12-30T19:50:37.283Z,6.60
2018-12-30T19:53:07.022Z,6.60
2018-12-30T19:55:39.211Z,6.60
2018-12-30T19:58:08.820Z,6.60
2018-12-30T20:00:38.280Z,6.60
2018-12-30T20:03:07.840Z,6.60
2018-12-30T20:05:37.328Z,6.60
2018-12-30T20:08:07.125Z,6.60
2018-12-30T20:10:36.725Z,6.60
2018-12-30T20:13:09.190Z,6.60
2018-12-30T20:15:37.541Z,6.60
2018-12-30T20:18:07.007Z,6.60
2018-12-30T20:20:36.472Z,6.60
2018-12-30T20:23:25.320Z,6.60
2018-12-30T20:25:55.038Z,6.50
2018-12-30T20:28:24.582Z,6.50
2018-12-30T20:30:54.049Z,6.50
2018-12-30T20:33:23.527Z,6.50
2018-12-30T20:35:53.020Z,6.50
2018-12-30T20:38:22.479Z,6.50
2018-12-30T20:40:52.265Z,6.50
2018-12-30T20:43:21.755Z,6.50
2018-12-30T20:45:51.224Z,6.50
2018-12-30T20:48:20.735Z,6.40
2018-12-30T20:51:09.585Z,6.50
2018-12-30T20:53:39.070Z,6.50
2018-12-30T20:56:08.832Z,6.40
2018-12-30T20:58:38.293Z,6.40
2018-12-30T21:01:07.773Z,6.40
2018-12-30T21:03:37.454Z,6.60
2018-12-30T21:06:07.135Z,6.50
2018-12-30T21:08:36.665Z,6.40
2018-12-30T21:11:06.157Z,6.40
2018-12-30T21:13:35.805Z,6.30
2018-12-30T21:16:05.314Z,6.30
2018-12-30T21:18:35.029Z,6.30
2018-12-30T21:21:04.526Z,6.40
2018-12-30T21:23:34.058Z,6.40
2018-12-30T21:26:03.516Z,6.40
2018-12-30T21:28:33.104Z,6.40
2018-12-30T21:31:02.781Z,6.40
2018-12-30T21:33:32.336Z,6.40
2018-12-30T21:36:01.837Z,6.50
2018-12-30T21:38:31.316Z,6.50
2018-12-30T21:41:00.793Z,6.50
2018-12-30T21:43:30.350Z,6.50
2018-12-30T21:45:59.818Z,6.50
2018-12-30T21:48:29.492Z,6.50
2018-12-30T21:50:58.953Z,6.50
2018-12-30T21:53:28.468Z,6.50
2018-12-30T21:55:57.984Z,6.50
2018-12-30T21:58:27.472Z,6.50
2018-12-30T22:00:57.068Z,6.50
2018-12-30T22:03:26.527Z,6.50
2018-12-30T22:05:56.008Z,6.60
2018-12-30T22:08:25.479Z,6.50
2018-12-30T22:10:56.388Z,6.50
2018-12-30T22:13:25.810Z,6.50
2018-12-30T22:15:55.284Z,6.60
2018-12-30T22:18:24.775Z,6.70
2018-12-30T22:20:54.243Z,6.70
2018-12-30T22:26:12.104Z,6.90
2018-12-30T22:28:41.589Z,6.90
2018-12-30T22:31:11.074Z,6.90
2018-12-30T22:33:40.540Z,7.00
2018-12-30T22:36:09.996Z,6.90
2018-12-30T22:38:42.697Z,7.00
2018-12-30T22:41:12.275Z,6.90
2018-12-30T22:43:41.768Z,7.00
2018-12-30T22:46:11.231Z,6.90
2018-12-30T22:48:40.709Z,6.90
2018-12-30T22:51:10.201Z,6.90
2018-12-30T22:53:39.663Z,6.90
2018-12-30T22:56:09.469Z,6.90
2018-12-30T22:58:38.874Z,6.90
2018-12-30T23:01:08.747Z,6.90
2018-12-30T23:03:38.279Z,6.80
2018-12-30T23:06:07.744Z,6.80
2018-12-30T23:08:37.207Z,6.90
2018-12-30T23:11:06.697Z,6.90
2018-12-30T23:13:36.160Z,6.80
2018-12-30T23:16:05.663Z,6.80
2018-12-30T23:18:35.149Z,6.70
2018-12-30T23:21:04.620Z,6.70
2018-12-30T23:23:34.118Z,6.70
2018-12-30T23:26:03.622Z,6.70
2018-12-30T23:28:33.174Z,6.60
2018-12-30T23:31:02.676Z,6.60
2018-12-30T23:33:32.134Z,6.60
2018-12-30T23:36:01.637Z,6.60
2018-12-30T23:38:31.087Z,6.60
2018-12-30T23:41:00.546Z,6.50
2018-12-30T23:43:30.043Z,6.50
2018-12-30T23:45:59.513Z,6.50
2018-12-30T23:48:28.984Z,6.50
2018-12-30T23:50:58.467Z,6.40
2018-12-30T23:53:27.921Z,6.40
2018-12-30T23:55:57.731Z,6.40
2018-12-30T23:58:27.195Z,6.30
